Inappropriate — WDI4460 — position and weather

sailwx.info

Track history (hours):
 
Tides and Currents Weather Stations Pressure Air Temp Water Temp Dewpoint Dewpoint Depression Visibility Wind Speed Wind Dir Waves Ship Positions

Inappropriate

Owner: Davis, Danil R, Manteo, NC. More information available from US FCC via Universal Licensing System and Coast Guard Vessel Documentation Center.

Last reported at 2018-Apr-14 19:58 UTC. Time now 2018-Apr-22 12:07 UTC.
Position N 26°51' W 080°00'.

Length 30 m.

Type: Pleasure craft. MMSI: 367698880.

Date/timePositionNaut miles runAvg speedWind from/ knotsBaromVisibWave heightAir tempDewpointWater temp
2018-Apr-14 19:58N 26°51' W 080°00'611.9
2018-Apr-14 19:30N 26°56' W 079°59'2 3.1
2018-Apr-14 19:00N 26°55' W 079°59'2 2.8
2018-Apr-14 18:27N 26°53' W 079°59'2 1.6
2018-Apr-14 17:25N 26°52' W 079°59'513.2
2018-Apr-14 17:00N 26°57' W 079°60'1 2.4
2018-Apr-14 16:30N 26°56' W 079°59'1 2.5
2018-Apr-14 16:00N 26°54' W 079°59'1 2.1
2018-Apr-14 15:30N 26°53' W 079°59'2 4.7
2018-Apr-14 15:00N 26°56' W 079°58'1 2.9
2018-Apr-14 14:29N 26°54' W 079°59'1 2.0
2018-Apr-14 14:00N 26°53' W 079°59'  
2018-Apr-08 18:45N 26°52' W 080°00'314.3
2018-Apr-08 18:30N 26°55' W 079°60'1 2.0
2018-Apr-08 18:00N 26°54' W 079°59'1 1.9
2018-Apr-08 17:30N 26°53' W 079°59'0 0.4
2018-Apr-08 16:46N 26°53' W 079°59'515.5
2018-Apr-08 16:28N 26°58' W 079°60'0 0.6
2018-Apr-08 15:58N 26°58' W 079°60'0 0.8
2018-Apr-08 15:28N 26°57' W 079°60'1 1.2
2018-Apr-08 14:57N 26°57' W 079°59'1 1.7
2018-Apr-08 14:30N 26°56' W 079°59'1 1.8
2018-Apr-08 13:55N 26°55' W 079°59'1 1.8
2018-Apr-08 13:28N 26°54' W 079°59'1 2.1
2018-Apr-08 13:00N 26°53' W 079°59'  
Track history (hours):
 
Tides and Currents Weather Stations Pressure Air Temp Water Temp Dewpoint Dewpoint Depression Visibility Wind Speed Wind Dir Waves Ship Positions

Inappropriate

Owner: Davis, Danil R, Manteo, NC. More information available from US FCC via Universal Licensing System and Coast Guard Vessel Documentation Center.

Last reported at 2018-Apr-14 19:58 UTC. Time now 2018-Apr-22 12:07 UTC.
Position N 26°51' W 080°00'.

Length 30 m.

Type: Pleasure craft. MMSI: 367698880.

Date/timePositionNaut miles runAvg speedWind from/ knotsBaromVisibWave heightAir tempDewpointWater temp
2018-Apr-14 19:58N 26°51' W 080°00'611.9
2018-Apr-14 19:30N 26°56' W 079°59'2 3.1
2018-Apr-14 19:00N 26°55' W 079°59'2 2.8
2018-Apr-14 18:27N 26°53' W 079°59'2 1.6
2018-Apr-14 17:25N 26°52' W 079°59'513.2
2018-Apr-14 17:00N 26°57' W 079°60'1 2.4
2018-Apr-14 16:30N 26°56' W 079°59'1 2.5
2018-Apr-14 16:00N 26°54' W 079°59'1 2.1
2018-Apr-14 15:30N 26°53' W 079°59'2 4.7
2018-Apr-14 15:00N 26°56' W 079°58'1 2.9
2018-Apr-14 14:29N 26°54' W 079°59'1 2.0
2018-Apr-14 14:00N 26°53' W 079°59'  
2018-Apr-08 18:45N 26°52' W 080°00'314.3
2018-Apr-08 18:30N 26°55' W 079°60'1 2.0
2018-Apr-08 18:00N 26°54' W 079°59'1 1.9
2018-Apr-08 17:30N 26°53' W 079°59'0 0.4
2018-Apr-08 16:46N 26°53' W 079°59'515.5
2018-Apr-08 16:28N 26°58' W 079°60'0 0.6
2018-Apr-08 15:58N 26°58' W 079°60'0 0.8
2018-Apr-08 15:28N 26°57' W 079°60'1 1.2
2018-Apr-08 14:57N 26°57' W 079°59'1 1.7
2018-Apr-08 14:30N 26°56' W 079°59'1 1.8
2018-Apr-08 13:55N 26°55' W 079°59'1 1.8
2018-Apr-08 13:28N 26°54' W 079°59'1 2.1
2018-Apr-08 13:00N 26°53' W 079°59'  

Dump ship's entire track history